createdAt,value
2023-05-25T00:00:08.341Z,100507.00
2023-05-25T00:02:37.107Z,100513.59
2023-05-25T00:05:06.550Z,100518.09
2023-05-25T00:07:34.971Z,100511.41
2023-05-25T00:10:03.581Z,100508.19
2023-05-25T00:12:33.567Z,100531.00
2023-05-25T00:15:02.169Z,100535.19
2023-05-25T00:17:32.277Z,100539.13
2023-05-25T00:20:08.189Z,100510.56
2023-05-25T00:22:37.105Z,100520.63
2023-05-25T00:25:06.945Z,100516.56
2023-05-25T00:27:36.775Z,100502.44
2023-05-25T00:30:05.873Z,100510.69
2023-05-25T00:32:34.387Z,100504.56
2023-05-25T00:35:02.875Z,100503.94
2023-05-25T00:37:31.311Z,100501.75
2023-05-25T00:39:59.777Z,100481.75
2023-05-25T00:42:29.851Z,100497.13
2023-05-25T00:44:59.975Z,100505.91
2023-05-25T00:47:29.442Z,100499.00
2023-05-25T00:49:59.092Z,100506.38
2023-05-25T00:52:28.168Z,100514.38
2023-05-25T00:55:00.445Z,100513.81
2023-05-25T00:57:34.313Z,100514.88
2023-05-25T01:00:07.324Z,100517.53
2023-05-25T01:02:36.545Z,100526.31
2023-05-25T01:05:10.513Z,100511.63
2023-05-25T01:07:40.622Z,100518.00
2023-05-25T01:10:12.554Z,100512.88
2023-05-25T01:12:44.086Z,100513.34
2023-05-25T01:15:14.441Z,100515.91
2023-05-25T01:17:43.821Z,100524.34
2023-05-25T01:20:13.804Z,100511.75
2023-05-25T01:22:49.385Z,100519.41
2023-05-25T01:25:25.303Z,100526.78
2023-05-25T01:27:59.005Z,100537.69
2023-05-25T01:30:28.336Z,100534.44
2023-05-25T01:32:58.562Z,100534.91
2023-05-25T01:35:28.710Z,100543.09
2023-05-25T01:38:00.447Z,100544.16
2023-05-25T01:40:29.267Z,100539.66
2023-05-25T01:42:57.796Z,100537.22
2023-05-25T01:45:28.475Z,100538.25
2023-05-25T01:48:07.574Z,100521.94
2023-05-25T01:50:42.920Z,100545.31
2023-05-25T01:53:20.578Z,100547.19
2023-05-25T01:55:55.696Z,100537.78
2023-05-25T01:58:26.116Z,100543.13
2023-05-25T02:00:56.711Z,100545.19
2023-05-25T02:03:25.338Z,100531.78
2023-05-25T02:05:53.890Z,100541.63
2023-05-25T02:08:23.911Z,100541.03
2023-05-25T02:10:52.869Z,100546.94
2023-05-25T02:13:21.302Z,100528.19
2023-05-25T02:15:49.846Z,100537.47
2023-05-25T02:18:20.904Z,100552.00
2023-05-25T02:20:49.519Z,100540.78
2023-05-25T02:23:18.970Z,100541.63
2023-05-25T02:25:48.890Z,100547.38
2023-05-25T02:28:17.991Z,100548.41
2023-05-25T02:30:46.395Z,100545.19
2023-05-25T02:33:15.049Z,100539.06
2023-05-25T02:35:44.590Z,100530.28
2023-05-25T02:38:13.337Z,100531.31
2023-05-25T02:40:41.984Z,100534.75
2023-05-25T02:43:11.917Z,100531.31
2023-05-25T02:45:41.217Z,100529.34
2023-05-25T02:48:12.472Z,100534.41
2023-05-25T02:50:40.908Z,100524.28
2023-05-25T02:53:13.591Z,100529.59
2023-05-25T02:55:43.779Z,100524.72
2023-05-25T02:58:19.888Z,100516.97
2023-05-25T03:01:19.227Z,100534.63
2023-05-25T03:03:54.594Z,100526.84
2023-05-25T03:06:26.536Z,100525.69
2023-05-25T03:09:09.785Z,100540.81
2023-05-25T03:11:41.173Z,100528.25
2023-05-25T03:14:14.687Z,100534.59
2023-05-25T03:16:46.510Z,100533.19
2023-05-25T03:19:15.082Z,100543.22
2023-05-25T03:21:44.111Z,100542.88
2023-05-25T03:24:12.772Z,100533.53
2023-05-25T03:26:41.772Z,100533.97
2023-05-25T03:29:10.537Z,100537.91
2023-05-25T03:31:40.836Z,100535.91
2023-05-25T03:34:09.873Z,100543.53
2023-05-25T03:36:40.005Z,100542.94
2023-05-25T03:39:10.643Z,100543.38
2023-05-25T03:41:39.314Z,100538.91
2023-05-25T03:44:08.397Z,100536.91
2023-05-25T03:46:36.939Z,100546.53
2023-05-25T03:49:06.881Z,100554.69
2023-05-25T03:51:38.069Z,100552.03
2023-05-25T03:54:12.530Z,100550.88
2023-05-25T03:56:41.407Z,100553.09
2023-05-25T03:59:10.000Z,100581.47
2023-05-25T04:01:40.173Z,100579.63
2023-05-25T04:04:10.119Z,100583.91
2023-05-25T04:06:39.211Z,100579.41
2023-05-25T04:09:09.094Z,100572.47
2023-05-25T04:11:37.518Z,100573.28
2023-05-25T04:14:05.967Z,100567.97
2023-05-25T04:16:37.886Z,100586.56
2023-05-25T04:19:06.507Z,100584.50
2023-05-25T04:21:36.414Z,100576.16
2023-05-25T04:24:05.621Z,100586.78
2023-05-25T04:26:35.461Z,100593.94
2023-05-25T04:29:04.943Z,100600.50
2023-05-25T04:31:59.514Z,100596.44
2023-05-25T04:34:46.890Z,100597.69
2023-05-25T04:37:23.222Z,100594.69
2023-05-25T04:39:52.572Z,100592.03
2023-05-25T04:42:24.042Z,100606.34
2023-05-25T04:44:56.542Z,100604.94
2023-05-25T04:47:26.054Z,100599.88
2023-05-25T04:49:55.685Z,100601.47
2023-05-25T04:52:25.950Z,100609.69
2023-05-25T04:54:55.638Z,100608.63
2023-05-25T04:57:24.134Z,100612.31
2023-05-25T04:59:53.084Z,100610.72
2023-05-25T05:02:21.677Z,100614.63
2023-05-25T05:04:53.666Z,100618.31
2023-05-25T05:07:22.998Z,100614.03
2023-05-25T05:09:52.987Z,100618.50
2023-05-25T05:12:21.516Z,100614.03
2023-05-25T05:14:53.183Z,100608.72
2023-05-25T05:17:23.178Z,100611.97
2023-05-25T05:19:53.886Z,100612.78
2023-05-25T05:22:22.639Z,100601.34
2023-05-25T05:24:53.392Z,100619.94
2023-05-25T05:27:27.167Z,100619.69
2023-05-25T05:30:01.350Z,100610.91
2023-05-25T05:32:30.025Z,100609.06
2023-05-25T05:34:59.135Z,100609.88
2023-05-25T05:37:36.375Z,100606.22
2023-05-25T05:40:08.132Z,100608.88
2023-05-25T05:42:37.878Z,100613.94
2023-05-25T05:45:08.191Z,100609.25
2023-05-25T05:47:36.807Z,100613.25
2023-05-25T05:50:06.611Z,100610.41
2023-05-25T05:52:37.174Z,100597.50
2023-05-25T05:55:07.976Z,100601.75
2023-05-25T05:57:38.319Z,100607.66
2023-05-25T06:00:09.422Z,100599.72
2023-05-25T06:02:44.060Z,100597.84
2023-05-25T06:05:17.190Z,100599.03
2023-05-25T06:07:46.030Z,100601.44
2023-05-25T06:10:16.290Z,100604.69
2023-05-25T06:12:45.812Z,100600.00
2023-05-25T06:15:14.242Z,100607.47
2023-05-25T06:17:43.357Z,100608.66
2023-05-25T06:20:15.026Z,100616.53
2023-05-25T06:22:44.147Z,100622.00
2023-05-25T06:25:13.982Z,100623.97
2023-05-25T06:27:43.863Z,100625.94
2023-05-25T06:30:14.265Z,100628.97
2023-05-25T06:32:43.743Z,100616.28
2023-05-25T06:35:19.500Z,100623.56
2023-05-25T06:37:52.893Z,100625.53
2023-05-25T06:40:23.102Z,100632.03
2023-05-25T06:42:54.080Z,100631.38
2023-05-25T06:45:41.205Z,100643.16
2023-05-25T06:48:10.031Z,100647.81
2023-05-25T06:50:38.454Z,100630.34
2023-05-25T06:53:06.813Z,100637.66
2023-05-25T06:55:35.250Z,100638.00
2023-05-25T06:58:05.092Z,100634.88
2023-05-25T07:00:33.515Z,100648.88
2023-05-25T07:03:02.806Z,100637.78
2023-05-25T07:05:31.333Z,100640.00
2023-05-25T07:07:59.803Z,100625.22
2023-05-25T07:10:28.228Z,100639.91
2023-05-25T07:12:56.583Z,100641.88
2023-05-25T07:15:26.414Z,100644.06
2023-05-25T07:17:57.226Z,100632.16
2023-05-25T07:20:26.186Z,100658.63
2023-05-25T07:22:54.703Z,100634.81
2023-05-25T07:25:23.175Z,100630.41
2023-05-25T07:27:55.088Z,100637.72
2023-05-25T07:30:25.042Z,100642.94
2023-05-25T07:32:53.737Z,100635.84
2023-05-25T07:35:22.177Z,100623.69
2023-05-25T07:38:08.542Z,100631.84
2023-05-25T07:40:37.033Z,100629.28
2023-05-25T07:43:08.097Z,100631.03
2023-05-25T07:45:38.247Z,100641.53
2023-05-25T07:48:07.846Z,100646.50
2023-05-25T07:50:36.703Z,100632.00
2023-05-25T07:53:07.549Z,100649.47
2023-05-25T07:55:36.179Z,100632.56
2023-05-25T07:58:07.620Z,100633.00
2023-05-25T08:00:37.442Z,100641.66
2023-05-25T08:03:06.200Z,100640.72
2023-05-25T08:05:34.745Z,100636.06
2023-05-25T08:08:03.367Z,100634.88
2023-05-25T08:10:32.557Z,100633.91
2023-05-25T08:13:01.034Z,100635.44
2023-05-25T08:15:29.585Z,100621.69
2023-05-25T08:17:59.586Z,100632.78
2023-05-25T08:20:28.123Z,100640.38
2023-05-25T08:22:56.668Z,100656.81
2023-05-25T08:25:25.421Z,100660.94
2023-05-25T08:27:53.775Z,100646.97
2023-05-25T08:30:22.992Z,100635.06
2023-05-25T08:32:51.660Z,100634.09
2023-05-25T08:35:21.510Z,100634.50
2023-05-25T08:37:49.931Z,100636.53
2023-05-25T08:40:20.319Z,100643.34
2023-05-25T08:42:49.433Z,100643.16
2023-05-25T08:45:33.340Z,100655.53
2023-05-25T08:48:06.144Z,100637.25
2023-05-25T08:50:37.167Z,100644.03
2023-05-25T08:53:09.837Z,100645.44
2023-05-25T08:55:40.717Z,100635.41
2023-05-25T08:58:16.359Z,100643.25
2023-05-25T09:00:52.193Z,100644.66
2023-05-25T09:03:22.027Z,100642.03
2023-05-25T09:05:52.238Z,100660.25
2023-05-25T09:08:23.002Z,100639.72
2023-05-25T09:10:53.106Z,100631.78
2023-05-25T09:13:23.049Z,100629.50
2023-05-25T09:15:53.070Z,100644.06
2023-05-25T09:18:21.717Z,100643.00
2023-05-25T09:20:52.156Z,100641.72
2023-05-25T09:23:21.061Z,100643.09
2023-05-25T09:25:51.332Z,100648.75
2023-05-25T09:30:52.798Z,100642.47
2023-05-25T09:33:21.954Z,100642.25
2023-05-25T09:35:53.307Z,100630.00
2023-05-25T09:38:22.861Z,100648.53
2023-05-25T09:40:52.564Z,100643.47
2023-05-25T09:43:36.390Z,100646.75
2023-05-25T09:46:09.067Z,100642.22
2023-05-25T09:48:38.149Z,100650.06
2023-05-25T09:51:11.365Z,100637.81
2023-05-25T09:53:40.016Z,100650.72
2023-05-25T09:56:08.795Z,100644.84
2023-05-25T09:58:41.158Z,100649.19
2023-05-25T10:01:09.701Z,100652.44
2023-05-25T10:04:03.009Z,100651.66
2023-05-25T10:06:35.241Z,100646.31
2023-05-25T10:09:05.170Z,100652.53
2023-05-25T10:11:36.937Z,100639.19
2023-05-25T10:14:08.837Z,100657.41
2023-05-25T10:16:41.188Z,100662.56
2023-05-25T10:19:18.506Z,100662.84
2023-05-25T10:21:57.851Z,100653.22
2023-05-25T10:24:33.200Z,100653.81
2023-05-25T10:27:14.645Z,100657.06
2023-05-25T10:29:50.595Z,100661.09
2023-05-25T10:32:22.068Z,100654.47
2023-05-25T10:34:53.668Z,100655.81
2023-05-25T10:37:27.700Z,100652.91
2023-05-25T10:39:58.189Z,100648.38
2023-05-25T10:42:29.670Z,100643.84
2023-05-25T10:44:58.702Z,100647.38
2023-05-25T10:47:27.614Z,100656.78
2023-05-25T10:49:58.776Z,100639.34
2023-05-25T10:52:33.269Z,100637.22
2023-05-25T10:55:04.396Z,100629.44
2023-05-25T10:57:33.159Z,100636.97
2023-05-25T11:00:08.852Z,100623.00
2023-05-25T11:02:53.764Z,100628.94
2023-05-25T11:05:38.366Z,100638.34
2023-05-25T11:08:10.156Z,100647.97
2023-05-25T11:10:55.195Z,100637.81
2023-05-25T11:13:41.188Z,100628.97
2023-05-25T11:16:20.950Z,100631.41
2023-05-25T11:18:57.509Z,100636.25
2023-05-25T11:21:45.340Z,100634.94
2023-05-25T11:24:19.652Z,100631.47
2023-05-25T11:26:59.820Z,100630.66
2023-05-25T11:29:33.316Z,100626.94
2023-05-25T11:32:02.910Z,100614.31
2023-05-25T11:34:33.334Z,100619.94
2023-05-25T11:37:05.289Z,100621.06
2023-05-25T11:39:35.215Z,100617.28
2023-05-25T11:42:07.603Z,100603.88
2023-05-25T11:44:38.089Z,100614.59
2023-05-25T11:47:09.862Z,100604.66
2023-05-25T11:49:44.292Z,100596.88
2023-05-25T11:52:14.313Z,100602.00
2023-05-25T11:54:45.212Z,100598.50
2023-05-25T11:57:19.090Z,100607.38
2023-05-25T11:59:51.196Z,100597.41
2023-05-25T12:02:20.657Z,100601.19
2023-05-25T12:04:56.363Z,100607.63
2023-05-25T12:07:26.241Z,100600.09
2023-05-25T12:10:07.048Z,100597.41
2023-05-25T12:12:45.620Z,100598.75
2023-05-25T12:15:19.716Z,100586.16
2023-05-25T12:17:50.232Z,100577.81
2023-05-25T12:20:19.798Z,100584.78
2023-05-25T12:22:50.648Z,100585.06
2023-05-25T12:25:24.516Z,100583.97
2023-05-25T12:28:13.759Z,100580.19
2023-05-25T12:30:43.084Z,100585.28
2023-05-25T12:33:15.670Z,100571.31
2023-05-25T12:35:49.085Z,100586.63
2023-05-25T12:38:22.844Z,100577.22
2023-05-25T12:41:07.079Z,100565.09
2023-05-25T12:43:40.297Z,100577.72
2023-05-25T12:46:08.927Z,100577.41
2023-05-25T12:48:39.423Z,100572.56
2023-05-25T12:51:09.964Z,100563.16
2023-05-25T12:53:50.080Z,100562.31
2023-05-25T12:56:19.918Z,100566.63
2023-05-25T12:58:48.839Z,100566.06
2023-05-25T13:01:17.830Z,100565.47
2023-05-25T13:03:47.434Z,100571.91
2023-05-25T13:06:27.006Z,100568.63
2023-05-25T13:08:59.372Z,100565.88
2023-05-25T13:11:52.591Z,100554.56
2023-05-25T13:14:21.514Z,100560.19
2023-05-25T13:16:50.609Z,100556.91
2023-05-25T13:19:26.012Z,100556.09
2023-05-25T13:21:56.182Z,100557.41
2023-05-25T13:24:24.732Z,100550.66
2023-05-25T13:26:55.285Z,100550.34
2023-05-25T13:29:28.617Z,100553.31
2023-05-25T13:31:57.082Z,100555.69
2023-05-25T13:34:25.476Z,100547.88
2023-05-25T13:36:53.993Z,100545.97
2023-05-25T13:39:23.122Z,100550.25
2023-05-25T13:41:55.900Z,100549.38
2023-05-25T13:44:24.568Z,100543.94
2023-05-25T13:46:53.113Z,100550.09
2023-05-25T13:49:22.237Z,100552.72
2023-05-25T13:51:51.322Z,100553.50
2023-05-25T13:54:21.789Z,100550.25
2023-05-25T13:56:50.202Z,100543.47
2023-05-25T13:59:20.025Z,100537.03
2023-05-25T14:02:04.406Z,100542.13
2023-05-25T14:04:32.999Z,100532.94
2023-05-25T14:07:02.699Z,100534.81
2023-05-25T14:09:41.630Z,100533.50
2023-05-25T14:12:11.364Z,100538.63
2023-05-25T14:14:42.253Z,100536.72
2023-05-25T14:17:10.828Z,100534.25
2023-05-25T14:19:39.374Z,100530.72
2023-05-25T14:22:13.783Z,100530.09
2023-05-25T14:24:43.196Z,100532.22
2023-05-25T14:27:36.575Z,100526.56
2023-05-25T14:30:08.851Z,100526.25
2023-05-25T14:32:37.410Z,100523.19
2023-05-25T14:35:07.085Z,100529.56
2023-05-25T14:37:35.526Z,100515.75
2023-05-25T14:40:04.455Z,100509.78
2023-05-25T14:42:32.967Z,100511.06
2023-05-25T14:45:01.362Z,100503.22
2023-05-25T14:47:31.604Z,100507.22
2023-05-25T14:50:00.080Z,100509.34
2023-05-25T14:52:28.500Z,100512.28
2023-05-25T14:54:56.914Z,100518.16
2023-05-25T14:57:25.621Z,100517.59
2023-05-25T14:59:54.028Z,100515.91
2023-05-25T15:02:22.512Z,100515.06
2023-05-25T15:08:14.075Z,100524.22
2023-05-25T15:10:42.505Z,100511.53
2023-05-25T15:13:12.579Z,100525.00
2023-05-25T15:15:42.643Z,100513.44
2023-05-25T15:18:11.463Z,100519.31
2023-05-25T15:20:41.518Z,100519.31
2023-05-25T15:23:10.061Z,100511.75
2023-05-25T15:25:38.498Z,100504.16
2023-05-25T15:28:07.298Z,100510.06
2023-05-25T15:30:36.436Z,100505.91
2023-05-25T15:33:05.100Z,100515.03
2023-05-25T15:35:35.945Z,100507.72
2023-05-25T15:38:06.448Z,100519.56
2023-05-25T15:41:32.160Z,100508.56
2023-05-25T15:44:01.446Z,100496.31
2023-05-25T15:46:30.131Z,100500.22
2023-05-25T15:48:58.565Z,100502.84
2023-05-25T15:51:27.044Z,100505.53
2023-05-25T15:53:59.488Z,100502.56
2023-05-25T15:56:30.133Z,100493.84
2023-05-25T15:58:58.678Z,100507.28
2023-05-25T16:01:27.023Z,100504.28
2023-05-25T16:03:55.828Z,100500.19
2023-05-25T16:06:24.236Z,100494.28
2023-05-25T16:08:53.212Z,100498.88
2023-05-25T16:11:23.631Z,100504.72
2023-05-25T16:13:52.132Z,100504.13
2023-05-25T16:16:20.795Z,100498.19
2023-05-25T16:18:49.856Z,100497.00
2023-05-25T16:21:18.478Z,100498.00
2023-05-25T16:23:46.860Z,100510.94
2023-05-25T16:26:15.255Z,100505.75
2023-05-25T16:28:45.250Z,100494.63
2023-05-25T16:31:15.633Z,100502.63
2023-05-25T16:33:44.443Z,100516.66
2023-05-25T16:36:14.081Z,100500.97
2023-05-25T16:38:44.247Z,100504.38
2023-05-25T16:41:15.139Z,100501.88
2023-05-25T16:43:44.992Z,100500.75
2023-05-25T16:46:21.133Z,100500.47
2023-05-25T16:48:49.689Z,100501.28
2023-05-25T16:51:20.952Z,100503.97
2023-05-25T16:53:57.411Z,100501.28
2023-05-25T16:56:26.386Z,100505.78
2023-05-25T16:58:56.234Z,100490.88
2023-05-25T17:01:24.678Z,100507.00
2023-05-25T17:03:53.235Z,100495.59
2023-05-25T17:06:21.802Z,100498.81
2023-05-25T17:08:50.180Z,100495.00
2023-05-25T17:11:19.127Z,100502.00
2023-05-25T17:13:47.620Z,100507.63
2023-05-25T17:16:54.589Z,100503.03
2023-05-25T17:19:23.825Z,100507.78
2023-05-25T17:21:52.454Z,100510.88
2023-05-25T17:24:20.906Z,100510.88
2023-05-25T17:26:51.571Z,100507.66
2023-05-25T17:29:20.011Z,100516.28
2023-05-25T17:31:49.017Z,100515.66
2023-05-25T17:34:19.074Z,100509.66
2023-05-25T17:36:48.115Z,100511.28
2023-05-25T17:39:16.774Z,100515.25
2023-05-25T17:41:46.122Z,100509.06
2023-05-25T17:44:14.607Z,100516.69
2023-05-25T17:46:42.997Z,100519.59
2023-05-25T17:49:11.466Z,100516.38
2023-05-25T17:51:42.225Z,100516.75
2023-05-25T17:54:15.266Z,100516.88
2023-05-25T17:56:43.695Z,100524.06
2023-05-25T18:00:04.100Z,100524.31
2023-05-25T18:02:40.848Z,100523.91
2023-05-25T18:05:10.103Z,100517.97
2023-05-25T18:07:39.828Z,100536.47
2023-05-25T18:10:09.470Z,100533.88
2023-05-25T18:12:37.967Z,100527.84
2023-05-25T18:15:07.949Z,100537.41
2023-05-25T18:17:36.800Z,100536.97
2023-05-25T18:20:06.223Z,100533.34
2023-05-25T18:22:34.626Z,100533.97
2023-05-25T18:25:05.755Z,100541.63
2023-05-25T18:27:34.727Z,100537.44
2023-05-25T18:30:03.315Z,100539.38
2023-05-25T18:32:31.828Z,100544.66
2023-05-25T18:35:00.305Z,100540.97
2023-05-25T18:37:29.394Z,100537.34
2023-05-25T18:39:57.907Z,100546.59
2023-05-25T18:42:27.782Z,100546.63
2023-05-25T18:44:56.248Z,100554.50
2023-05-25T18:47:27.726Z,100541.84
2023-05-25T18:49:56.313Z,100547.81
2023-05-25T18:52:24.676Z,100553.00
2023-05-25T18:54:59.466Z,100551.16
2023-05-25T18:57:29.725Z,100556.88
2023-05-25T18:59:58.092Z,100552.31
2023-05-25T19:02:29.260Z,100547.00
2023-05-25T19:05:00.541Z,100558.34
2023-05-25T19:07:29.080Z,100559.75
2023-05-25T19:09:57.491Z,100558.19
2023-05-25T19:12:25.931Z,100563.34
2023-05-25T19:15:24.400Z,100569.38
2023-05-25T19:18:19.691Z,100561.03
2023-05-25T19:20:50.255Z,100582.63
2023-05-25T19:23:20.015Z,100581.88
2023-05-25T19:25:48.923Z,100577.91
2023-05-25T19:28:17.635Z,100585.44
2023-05-25T19:30:47.488Z,100585.50
2023-05-25T19:33:15.981Z,100596.03
2023-05-25T19:35:45.343Z,100591.78
2023-05-25T19:38:14.373Z,100603.09
2023-05-25T19:40:43.650Z,100607.75
2023-05-25T19:43:12.213Z,100601.59
2023-05-25T19:45:43.826Z,100610.78
2023-05-25T19:48:13.867Z,100607.03
2023-05-25T19:50:42.397Z,100598.22
2023-05-25T19:53:11.014Z,100617.88
2023-05-25T19:55:39.437Z,100612.53
2023-05-25T19:58:07.930Z,100614.16
2023-05-25T20:00:36.564Z,100607.19
2023-05-25T20:03:05.392Z,100609.91
2023-05-25T20:05:35.230Z,100609.94
2023-05-25T20:08:03.824Z,100616.69
2023-05-25T20:10:38.682Z,100623.97
2023-05-25T20:13:08.730Z,100624.00
2023-05-25T20:15:37.277Z,100628.06
2023-05-25T20:18:06.165Z,100624.31
2023-05-25T20:20:36.133Z,100628.09
2023-05-25T20:23:04.632Z,100632.13
2023-05-25T20:25:33.266Z,100631.06
2023-05-25T20:28:01.820Z,100640.78
2023-05-25T20:30:30.631Z,100631.66
2023-05-25T20:32:59.425Z,100638.66
2023-05-25T20:35:28.138Z,100642.44
2023-05-25T20:37:57.980Z,100638.16
2023-05-25T20:40:27.144Z,100637.06
2023-05-25T20:42:55.564Z,100642.19
2023-05-25T20:45:25.089Z,100652.66
2023-05-25T20:48:01.497Z,100656.47
2023-05-25T20:50:33.315Z,100652.72
2023-05-25T20:53:03.196Z,100649.22
2023-05-25T20:55:31.713Z,100651.66
2023-05-25T20:58:01.039Z,100658.34
2023-05-25T21:00:29.473Z,100659.47
2023-05-25T21:02:58.070Z,100651.41
2023-05-25T21:05:26.790Z,100665.66
2023-05-25T21:07:55.246Z,100664.84
2023-05-25T21:10:25.041Z,100662.69
2023-05-25T21:12:53.519Z,100668.34
2023-05-25T21:15:22.105Z,100673.16
2023-05-25T21:17:50.748Z,100669.38
2023-05-25T21:20:20.053Z,100681.19
2023-05-25T21:22:48.555Z,100671.78
2023-05-25T21:25:16.995Z,100668.56
2023-05-25T21:27:46.990Z,100675.53
2023-05-25T21:30:17.069Z,100679.59
2023-05-25T21:32:46.741Z,100690.84
2023-05-25T21:35:18.337Z,100682.78
2023-05-25T21:37:48.144Z,100687.63
2023-05-25T21:40:23.946Z,100684.66
2023-05-25T21:42:54.354Z,100680.63
2023-05-25T21:45:23.027Z,100691.84
2023-05-25T21:47:51.483Z,100684.88
2023-05-25T21:50:20.070Z,100691.28
2023-05-25T21:52:48.762Z,100697.66
2023-05-25T21:55:17.277Z,100694.97
2023-05-25T21:57:45.721Z,100696.28
2023-05-25T22:00:17.672Z,100697.09
2023-05-25T22:02:46.132Z,100693.28
2023-05-25T22:05:15.728Z,100690.88
2023-05-25T22:07:44.139Z,100687.34
2023-05-25T22:10:13.292Z,100690.81
2023-05-25T22:12:42.670Z,100694.53
2023-05-25T22:15:15.888Z,100693.19
2023-05-25T22:17:46.209Z,100697.44
2023-05-25T22:20:15.105Z,100688.88
2023-05-25T22:22:44.703Z,100694.19
2023-05-25T22:25:13.563Z,100699.03
2023-05-25T22:27:42.090Z,100695.78
2023-05-25T22:30:12.257Z,100698.97
2023-05-25T22:32:43.918Z,100700.06
2023-05-25T22:38:22.089Z,100709.88
2023-05-25T22:40:50.404Z,100701.53
2023-05-25T22:43:18.853Z,100702.59
2023-05-25T22:45:47.414Z,100707.41
2023-05-25T22:48:17.345Z,100706.88
2023-05-25T22:50:45.791Z,100710.06
2023-05-25T22:53:14.187Z,100705.22
2023-05-25T22:55:43.362Z,100714.56
2023-05-25T22:58:12.952Z,100708.91
2023-05-25T23:00:41.313Z,100709.44
2023-05-25T23:03:09.859Z,100703.81
2023-05-25T23:05:39.686Z,100711.28
2023-05-25T23:08:09.170Z,100713.38
2023-05-25T23:10:37.853Z,100705.88
2023-05-25T23:13:07.646Z,100705.59
2023-05-25T23:15:39.267Z,100712.25
2023-05-25T23:18:08.132Z,100716.00
2023-05-25T23:20:36.732Z,100707.66
2023-05-25T23:23:06.558Z,100710.66
2023-05-25T23:25:34.964Z,100724.28
2023-05-25T23:28:03.285Z,100725.34
2023-05-25T23:30:31.694Z,100720.78
2023-05-25T23:33:00.748Z,100717.03
2023-05-25T23:35:29.474Z,100715.16
2023-05-25T23:37:58.682Z,100717.84
2023-05-25T23:40:29.135Z,100723.78
2023-05-25T23:42:57.545Z,100717.59
2023-05-25T23:45:25.918Z,100722.47
2023-05-25T23:47:54.478Z,100724.34
2023-05-25T23:50:23.037Z,100729.69
2023-05-25T23:52:51.536Z,100737.16
2023-05-25T23:55:20.060Z,100729.69
2023-05-25T23:57:49.839Z,100732.59
